Time;durP1;ratioP1;P1;durP2;ratioP2;P2;SDS_P1;SDS_P2;PMS_P1;PMS_P2;Temp;Humidity;BMP_temperature;BMP_pressure;BME280_temperature;BME280_humidity;BME280_pressure;Samples;Min_cycle;Max_cycle;Signal;HPM_P1;HPM_P2
2022/06/08 00:01:55;;;;;;;3.47;2.28;;;;;;;15.31;75.98;94245.91;5050652;28;20306;-83
2022/06/08 00:04:23;;;;;;;4.13;2.65;;;;;;;15.25;75.62;94242.72;5050748;28;20609;-83
2022/06/08 00:06:50;;;;;;;2.58;2.00;;;;;;;15.29;76.09;94246.28;5050792;28;20231;-82
2022/06/08 00:09:18;;;;;;;3.88;2.70;;;;;;;15.32;76.09;94242.03;5049912;28;20768;-82
2022/06/08 00:11:46;;;;;;;2.63;1.98;;;;;;;15.33;75.53;94238.13;5050179;28;20227;-83
2022/06/08 00:14:13;;;;;;;3.58;2.17;;;;;;;15.23;75.95;94238.78;5050079;28;20714;-83
2022/06/08 00:16:40;;;;;;;3.17;2.40;;;;;;;15.22;75.61;94243.44;5050758;28;20732;-83
2022/06/08 00:19:07;;;;;;;3.05;2.22;;;;;;;15.26;75.42;94235.31;5050626;28;20710;-83
2022/06/08 00:21:35;;;;;;;2.53;2.13;;;;;;;15.32;75.35;94233.84;5050260;28;20200;-83
2022/06/08 00:24:03;;;;;;;6.82;2.35;;;;;;;15.33;75.64;94232.69;5050340;28;20579;-82
2022/06/08 00:26:32;;;;;;;3.33;2.40;;;;;;;15.39;75.18;94231.22;5037594;28;20207;-81
2022/06/08 00:28:58;;;;;;;3.08;2.22;;;;;;;15.38;74.89;94240.56;5052228;28;20203;-82
2022/06/08 00:31:26;;;;;;;5.93;2.53;;;;;;;15.40;75.59;94246.44;5054611;28;20230;-84
2022/06/08 00:33:52;;;;;;;4.57;2.25;;;;;;;15.36;75.88;94242.88;5054300;28;20199;-81
2022/06/08 00:36:19;;;;;;;5.90;2.20;;;;;;;15.35;76.21;94235.84;5054758;28;20258;-82
2022/06/08 00:38:46;;;;;;;2.95;2.03;;;;;;;15.26;76.28;94240.78;5054046;28;20289;-82
2022/06/08 00:41:38;;;;;;;4.22;2.78;;;;;;;15.13;76.59;94240.19;5053914;28;20227;-83
2022/06/08 00:44:13;;;;;;;5.13;2.55;;;;;;;15.19;76.37;94235.19;5057382;28;20313;-82
2022/06/08 00:46:40;;;;;;;2.75;2.25;;;;;;;15.08;76.18;94234.25;5054351;28;20195;-82
2022/06/08 00:49:17;;;;;;;5.05;2.28;;;;;;;15.08;76.40;94239.69;5054346;28;20204;-81
2022/06/08 00:51:44;;;;;;;4.85;2.42;;;;;;;15.02;76.82;94241.19;5053643;28;20799;-82
2022/06/08 00:54:19;;;;;;;2.35;1.92;;;;;;;15.08;76.82;94239.69;5053527;28;20219;-81
2022/06/08 00:56:51;;;;;;;2.50;2.10;;;;;;;15.12;76.70;94235.88;5054105;28;20269;-83
2022/06/08 00:59:19;;;;;;;4.07;2.15;;;;;;;15.04;77.14;94230.66;5053481;28;20268;-83
2022/06/08 01:01:46;;;;;;;2.42;2.22;;;;;;;14.97;76.88;94236.00;5053911;28;20203;-80
2022/06/08 01:04:15;;;;;;;4.05;2.17;;;;;;;14.80;77.59;94232.63;5053935;28;20300;-83
2022/06/08 01:06:44;;;;;;;4.78;2.47;;;;;;;14.83;78.06;94236.56;5053564;28;20694;-83
2022/06/08 01:09:20;;;;;;;3.28;2.47;;;;;;;14.81;78.44;94228.75;5048065;28;20216;-81
2022/06/08 01:11:48;;;;;;;3.25;2.53;;;;;;;14.74;79.49;94228.63;5047512;28;20241;-82
2022/06/08 01:14:16;;;;;;;4.60;2.60;;;;;;;14.74;79.60;94223.19;5053502;28;20243;-82
2022/06/08 01:16:49;;;;;;;3.03;2.28;;;;;;;14.79;79.16;94230.25;5053934;28;20541;-80
2022/06/08 01:19:16;;;;;;;10.23;2.50;;;;;;;14.66;79.17;94218.75;5058592;28;20203;-81
2022/06/08 01:21:53;;;;;;;8.07;2.58;;;;;;;14.70;78.37;94221.53;5054975;28;20224;-81
2022/06/08 01:24:20;;;;;;;3.10;2.38;;;;;;;14.66;79.29;94213.28;5053393;28;20284;-82
2022/06/08 01:26:57;;;;;;;2.47;2.20;;;;;;;14.70;78.87;94216.88;5053180;28;20578;-81
2022/06/08 01:29:31;;;;;;;4.53;2.40;;;;;;;14.84;78.33;94211.66;5053309;28;20203;-81
2022/06/08 01:32:04;;;;;;;5.90;2.70;;;;;;;14.78;78.46;94210.38;5053344;28;20192;-81
2022/06/08 01:34:40;;;;;;;3.38;2.78;;;;;;;14.77;78.87;94214.25;5053313;28;20196;-81
2022/06/08 01:37:25;;;;;;;3.35;2.72;;;;;;;14.71;78.00;94210.28;5053030;28;20227;-82
2022/06/08 01:40:11;;;;;;;2.72;2.50;;;;;;;14.69;78.56;94217.22;5051421;28;20265;-82
2022/06/08 01:42:54;;;;;;;4.15;2.63;;;;;;;14.77;77.92;94208.78;5052760;28;20629;-81
2022/06/08 01:45:36;;;;;;;3.40;2.40;;;;;;;14.79;78.33;94209.22;5053773;28;20639;-81
2022/06/08 01:48:25;;;;;;;3.92;2.78;;;;;;;14.75;77.94;94219.31;5053363;28;20195;-81
2022/06/08 01:51:04;;;;;;;3.50;2.67;;;;;;;14.71;77.94;94218.44;5040525;28;20192;-82
2022/06/08 01:53:53;;;;;;;3.70;2.55;;;;;;;14.81;78.01;94217.84;5052331;28;20223;-81
2022/06/08 01:56:26;;;;;;;3.00;2.35;;;;;;;14.79;78.41;94214.69;5052021;28;20755;-82
2022/06/08 01:59:01;;;;;;;3.85;2.42;;;;;;;14.69;79.16;94226.19;5039231;28;20224;-83
2022/06/08 02:01:37;;;;;;;3.70;2.47;;;;;;;14.75;78.88;94221.25;5052445;28;20251;-83
2022/06/08 02:04:12;;;;;;;3.88;2.42;;;;;;;14.74;79.12;94216.94;5052690;28;20250;-83
2022/06/08 02:06:46;;;;;;;4.90;2.20;;;;;;;14.56;80.06;94217.41;5052078;28;20285;-83
2022/06/08 02:09:23;;;;;;;3.50;2.83;;;;;;;14.33;81.44;94216.56;5040554;28;20207;-83
2022/06/08 02:11:55;;;;;;;2.40;2.13;;;;;;;14.43;81.46;94217.94;5051710;28;20273;-82
2022/06/08 02:14:29;;;;;;;4.90;2.80;;;;;;;14.24;82.24;94208.63;5052392;28;20377;-82
2022/06/08 02:17:05;;;;;;;4.40;3.03;;;;;;;14.08;83.00;94213.34;5052314;28;20195;-82
2022/06/08 02:19:36;;;;;;;4.30;3.00;;;;;;;13.87;84.23;94218.38;5051870;28;20361;-82
2022/06/08 02:22:08;;;;;;;3.60;2.90;;;;;;;13.90;83.81;94211.44;5051935;28;20952;-82
2022/06/08 02:24:39;;;;;;;3.75;2.72;;;;;;;14.04;83.14;94207.06;5052573;28;20265;-82
2022/06/08 02:27:13;;;;;;;4.55;2.70;;;;;;;14.19;81.84;94208.91;5051812;28;20188;-82
2022/06/08 02:29:46;;;;;;;4.68;3.15;;;;;;;14.34;81.64;94206.47;5052456;28;20238;-82
2022/06/08 02:35:02;;;;;;;4.40;2.60;;;;;;;14.55;80.74;94209.59;5052263;28;20600;-81
2022/06/08 02:37:32;;;;;;;5.88;3.10;;;;;;;14.51;81.03;94206.78;5052124;28;20250;-82
2022/06/08 02:40:07;;;;;;;4.15;2.88;;;;;;;14.57;80.64;94205.34;5051942;28;20713;-82
2022/06/08 02:42:40;;;;;;;3.42;2.72;;;;;;;14.62;80.45;94204.28;5051887;28;20646;-82
2022/06/08 02:45:13;;;;;;;6.03;2.85;;;;;;;14.55;80.71;94204.94;5068340;28;20218;-82
2022/06/08 02:47:41;;;;;;;5.88;3.45;;;;;;;14.56;81.13;94195.59;5071581;28;20223;-82
2022/06/08 02:50:11;;;;;;;3.72;2.75;;;;;;;14.60;80.86;94203.84;5058151;28;20249;-82
2022/06/08 02:52:42;;;;;;;4.00;2.90;;;;;;;14.39;81.27;94212.38;5051717;28;20204;-82
2022/06/08 02:55:19;;;;;;;4.75;3.00;;;;;;;14.20;82.35;94221.41;5051952;28;20227;-82
2022/06/08 02:57:52;;;;;;;2.83;2.42;;;;;;;14.06;82.94;94221.13;5051458;28;20287;-82
2022/06/08 03:00:25;;;;;;;3.13;2.40;;;;;;;13.99;84.09;94226.41;5051282;28;20273;-82
2022/06/08 03:02:58;;;;;;;4.18;3.13;;;;;;;14.32;83.33;94223.16;5051208;28;20659;-81
2022/06/08 03:05:28;;;;;;;5.43;3.25;;;;;;;14.61;82.13;94224.50;5051267;28;20261;-82
2022/06/08 03:07:59;;;;;;;5.63;3.20;;;;;;;15.24;80.09;94224.78;5050839;28;20196;-81
2022/06/08 03:10:31;;;;;;;4.53;3.33;;;;;;;15.89;77.24;94215.56;5051289;28;20771;-82
2022/06/08 03:13:05;;;;;;;6.30;3.35;;;;;;;16.46;74.78;94222.47;5051177;28;20650;-80
2022/06/08 03:15:34;;;;;;;3.78;2.97;;;;;;;17.39;71.76;94218.63;5051424;28;20195;-82
2022/06/08 03:18:01;;;;;;;4.03;3.10;;;;;;;18.15;69.96;94223.41;5051149;28;20357;-82
2022/06/08 03:20:28;;;;;;;6.32;4.13;;;;;;;19.36;65.83;94221.69;5050708;28;20662;-82
2022/06/08 03:22:56;;;;;;;4.28;3.70;;;;;;;20.45;62.02;94214.41;5051156;28;20215;-82
2022/06/08 03:25:24;;;;;;;4.80;3.88;;;;;;;21.16;59.67;94208.47;5051451;28;20230;-81
2022/06/08 03:27:53;;;;;;;4.25;3.45;;;;;;;21.67;57.13;94210.41;5051442;28;20211;-82
2022/06/08 03:30:22;;;;;;;4.45;3.25;;;;;;;22.15;55.50;94206.78;5050685;28;20214;-82
2022/06/08 03:32:49;;;;;;;3.92;3.20;;;;;;;22.96;53.82;94216.78;5051537;28;20234;-83
2022/06/08 03:35:16;;;;;;;3.47;3.15;;;;;;;22.77;53.90;94213.94;5050872;28;20215;-83
2022/06/08 03:37:43;;;;;;;4.78;3.72;;;;;;;23.49;52.34;94203.38;5050922;28;20220;-77
2022/06/08 03:40:11;;;;;;;3.80;3.40;;;;;;;23.80;50.58;94207.59;5050951;28;20613;-80
2022/06/08 03:42:38;;;;;;;5.75;4.05;;;;;;;23.98;50.63;94201.72;5051078;28;20555;-81
2022/06/08 03:45:09;;;;;;;7.13;3.88;;;;;;;24.27;50.06;94204.78;5054521;28;20285;-81
2022/06/08 03:47:40;;;;;;;6.13;3.63;;;;;;;25.03;47.89;94197.22;5050587;28;20241;-81
2022/06/08 03:50:10;;;;;;;4.38;3.50;;;;;;;24.98;47.78;94195.00;5050321;28;20223;-80
2022/06/08 03:52:43;;;;;;;4.72;3.78;;;;;;;25.13;48.12;94201.78;5051403;28;20385;-79
2022/06/08 03:55:13;;;;;;;4.63;3.60;;;;;;;26.13;46.37;94195.31;5050651;28;20223;-81
2022/06/08 03:57:45;;;;;;;5.38;4.03;;;;;;;26.56;45.47;94191.38;5051066;28;20195;-80
2022/06/08 04:00:17;;;;;;;5.80;4.10;;;;;;;27.55;43.37;94185.53;5050256;28;20860;-83
2022/06/08 04:02:45;;;;;;;5.70;4.38;;;;;;;27.81;42.47;94180.72;5051117;28;20461;-88
2022/06/08 04:05:12;;;;;;;4.90;3.72;;;;;;;27.39;41.92;94188.44;5054223;28;20273;-82
2022/06/08 04:07:40;;;;;;;4.97;4.15;;;;;;;27.61;42.15;94180.22;5054607;28;20286;-85
2022/06/08 04:10:07;;;;;;;7.15;4.45;;;;;;;27.92;41.28;94191.50;5055109;28;20732;-83
2022/06/08 04:12:34;;;;;;;8.02;4.30;;;;;;;27.84;41.11;94195.78;5055256;28;20277;-83
2022/06/08 04:15:01;;;;;;;6.13;4.18;;;;;;;28.18;40.83;94183.84;5055088;28;20241;-83
2022/06/08 04:17:30;;;;;;;5.05;4.13;;;;;;;27.87;40.95;94181.72;5054257;28;20215;-83
2022/06/08 04:19:57;;;;;;;6.28;4.25;;;;;;;27.72;41.34;94179.88;5054021;28;20220;-82
2022/06/08 04:22:30;;;;;;;6.03;4.32;;;;;;;28.46;40.61;94173.72;5054850;28;20211;-80
2022/06/08 04:24:58;;;;;;;5.00;4.25;;;;;;;29.51;38.63;94173.69;5041766;28;20222;-80
2022/06/08 04:27:25;;;;;;;5.30;4.25;;;;;;;29.74;37.77;94174.34;5054579;28;20245;-81
2022/06/08 04:29:53;;;;;;;5.55;4.53;;;;;;;30.72;36.24;94168.53;5054513;28;20386;-82
2022/06/08 04:32:21;;;;;;;4.70;4.30;;;;;;;31.13;35.77;94169.06;5053965;28;20224;-81
2022/06/08 04:34:50;;;;;;;5.72;4.78;;;;;;;30.20;36.61;94173.19;5054531;28;20227;-80
2022/06/08 04:37:17;;;;;;;7.20;4.32;;;;;;;29.92;36.90;94168.81;5053995;28;20223;-81
2022/06/08 04:39:44;;;;;;;6.72;4.28;;;;;;;29.64;37.27;94160.38;5054306;28;20200;-83
2022/06/08 04:42:11;;;;;;;7.25;4.95;;;;;;;28.82;38.67;94157.25;5054584;28;20196;-82
2022/06/08 04:44:38;;;;;;;8.85;4.72;;;;;;;29.35;38.12;94159.94;5057578;28;20227;-82
2022/06/08 04:47:05;;;;;;;5.00;4.20;;;;;;;29.24;38.18;94165.19;5054326;28;20208;-83
2022/06/08 04:49:32;;;;;;;7.10;4.60;;;;;;;29.50;38.27;94172.13;5054165;28;20655;-83
2022/06/08 04:52:01;;;;;;;6.10;4.63;;;;;;;31.21;35.54;94170.25;5054121;28;20227;-81
2022/06/08 04:54:28;;;;;;;10.38;4.95;;;;;;;30.91;35.89;94175.59;5053871;28;20224;-82
2022/06/08 04:56:55;;;;;;;8.18;4.65;;;;;;;29.70;37.72;94172.47;5054136;28;20219;-81
2022/06/08 04:59:22;;;;;;;6.22;4.53;;;;;;;28.80;39.42;94181.25;5053673;28;20199;-82
2022/06/08 05:01:49;;;;;;;5.55;4.80;;;;;;;28.25;40.11;94186.41;5053878;28;20223;-81
2022/06/08 05:04:16;;;;;;;7.28;5.22;;;;;;;27.21;42.61;94191.00;5053805;28;20285;-83
2022/06/08 05:06:43;;;;;;;6.22;4.70;;;;;;;28.54;39.61;94186.16;5053841;28;20282;-82
2022/06/08 05:09:11;;;;;;;7.60;5.05;;;;;;;27.98;41.67;94183.38;5053307;28;20306;-82
2022/06/08 05:11:38;;;;;;;7.45;4.53;;;;;;;26.44;43.53;94186.56;5053560;28;20603;-82
2022/06/08 05:14:05;;;;;;;5.13;4.47;;;;;;;26.60;43.54;94189.28;5053023;28;20305;-81
2022/06/08 05:16:31;;;;;;;9.40;4.95;;;;;;;28.05;41.82;94181.09;5053490;28;20444;-83
2022/06/08 05:18:58;;;;;;;6.65;4.75;;;;;;;29.08;38.59;94173.81;5053777;28;20204;-81
2022/06/08 05:21:25;;;;;;;6.85;4.93;;;;;;;27.17;42.34;94182.81;5053338;28;20208;-82
2022/06/08 05:23:53;;;;;;;7.93;5.05;;;;;;;28.23;39.77;94174.94;5054105;28;20249;-83
2022/06/08 05:26:21;;;;;;;10.60;4.50;;;;;;;28.18;39.62;94187.44;5053347;28;20290;-80
2022/06/08 05:28:48;;;;;;;11.93;4.30;;;;;;;29.21;37.40;94180.06;5053395;28;20265;-81
2022/06/08 05:31:15;;;;;;;8.85;4.72;;;;;;;30.27;35.40;94181.25;5053467;28;20207;-80
2022/06/08 05:33:42;;;;;;;8.50;3.20;;;;;;;29.85;36.40;94191.44;5053111;28;20710;-81
2022/06/08 05:36:10;;;;;;;4.22;3.13;;;;;;;29.52;36.14;94191.22;5053496;28;20252;-80
2022/06/08 05:38:37;;;;;;;5.18;4.10;;;;;;;29.72;36.34;94193.56;5053092;28;20199;-81
2022/06/08 05:41:04;;;;;;;5.82;3.35;;;;;;;30.01;36.01;94193.97;5053297;28;20265;-82
2022/06/08 05:43:32;;;;;;;5.90;3.20;;;;;;;30.92;34.57;94193.94;5056048;28;20701;-82
2022/06/08 05:45:59;;;;;;;5.18;2.80;;;;;;;30.95;34.30;94193.03;5039936;28;20285;-81
2022/06/08 05:48:26;;;;;;;3.63;2.80;;;;;;;30.52;34.16;94182.97;5053010;28;20291;-81
2022/06/08 05:50:53;;;;;;;3.95;2.95;;;;;;;30.42;35.26;94189.03;5053195;28;20275;-80
2022/06/08 05:53:19;;;;;;;5.30;3.05;;;;;;;30.11;35.52;94195.53;5053146;28;20208;-83
2022/06/08 05:55:46;;;;;;;7.45;3.03;;;;;;;30.13;35.47;94192.28;5053244;28;20219;-82
2022/06/08 05:58:13;;;;;;;8.32;3.10;;;;;;;31.03;33.80;94183.03;5053001;28;20241;-82
2022/06/08 06:00:43;;;;;;;5.40;3.28;;;;;;;29.88;35.13;94185.72;5053009;28;20203;-79
2022/06/08 06:03:10;;;;;;;5.88;3.20;;;;;;;31.18;34.44;94177.56;5052931;28;20257;-82
2022/06/08 06:05:40;;;;;;;6.82;2.75;;;;;;;32.81;32.35;94179.84;5052353;28;20227;-81
2022/06/08 06:08:08;;;;;;;3.63;2.90;;;;;;;33.76;30.67;94173.78;5050197;28;20776;-80
2022/06/08 06:10:37;;;;;;;6.25;3.03;;;;;;;33.82;30.16;94171.81;5041807;28;20204;-82
2022/06/08 06:13:05;;;;;;;3.80;2.97;;;;;;;35.32;28.08;94165.63;5052060;28;20897;-79
2022/06/08 06:15:32;;;;;;;6.57;3.17;;;;;;;33.74;29.24;94165.03;5052021;28;20200;-79
2022/06/08 06:18:00;;;;;;;2.90;2.70;;;;;;;35.23;28.48;94172.97;5051579;28;20222;-80
2022/06/08 06:20:27;;;;;;;6.78;2.90;;;;;;;33.73;28.92;94176.78;5051944;28;20245;-79
2022/06/08 06:22:54;;;;;;;5.05;3.35;;;;;;;31.79;32.12;94170.63;5052182;28;20277;-82
2022/06/08 06:25:21;;;;;;;4.57;3.10;;;;;;;32.70;31.39;94163.53;5052176;28;20249;-82
2022/06/08 06:27:48;;;;;;;4.53;3.05;;;;;;;33.71;30.89;94154.00;5051505;28;20235;-82
2022/06/08 06:30:16;;;;;;;5.80;3.00;;;;;;;30.38;33.61;94166.81;5052312;28;20204;-81
2022/06/08 06:32:44;;;;;;;4.97;2.72;;;;;;;29.19;36.16;94176.94;5051837;28;20223;-84
2022/06/08 06:35:19;;;;;;;8.93;2.85;;;;;;;31.15;33.95;94160.97;5051941;28;20227;-79
2022/06/08 06:37:45;;;;;;;7.68;3.35;;;;;;;31.47;32.13;94160.19;5052432;28;20248;-83
2022/06/08 06:40:12;;;;;;;4.15;2.92;;;;;;;32.63;30.50;94157.56;5045298;28;20269;-83
2022/06/08 06:42:39;;;;;;;4.38;3.35;;;;;;;32.84;30.49;94153.63;5050589;28;20196;-84
2022/06/08 06:45:08;;;;;;;7.00;2.85;;;;;;;31.71;32.64;94158.22;5044494;28;20278;-80
2022/06/08 06:47:35;;;;;;;4.88;3.15;;;;;;;30.28;33.69;94168.84;5050577;28;20662;-80
2022/06/08 06:50:02;;;;;;;6.70;3.47;;;;;;;30.34;33.80;94152.97;5049008;28;20223;-81
2022/06/08 06:52:30;;;;;;;6.15;3.35;;;;;;;31.40;32.17;94149.34;5043932;28;20299;-81
2022/06/08 06:54:57;;;;;;;5.15;3.40;;;;;;;29.91;34.50;94145.69;5032686;28;20260;-79
2022/06/08 06:57:23;;;;;;;5.60;3.08;;;;;;;29.58;34.13;94153.84;5037653;28;20238;-82
2022/06/08 06:59:50;;;;;;;5.20;2.97;;;;;;;30.55;33.32;94142.13;5050274;28;20220;-81
2022/06/08 07:02:19;;;;;;;4.63;3.70;;;;;;;32.11;32.83;94134.63;5050545;28;20223;-82
2022/06/08 07:04:47;;;;;;;4.93;2.83;;;;;;;32.03;31.44;94127.81;5050452;28;20240;-82
2022/06/08 07:07:15;;;;;;;4.97;3.55;;;;;;;32.86;30.32;94137.06;5050166;28;20199;-81
2022/06/08 07:09:43;;;;;;;5.00;3.20;;;;;;;31.24;33.17;94139.31;5050560;28;20281;-83
2022/06/08 07:12:13;;;;;;;4.32;3.72;;;;;;;32.00;33.12;94131.56;5041124;28;20747;-79
2022/06/08 07:14:40;;;;;;;6.38;3.10;;;;;;;30.70;32.59;94137.44;5045665;28;20327;-82
2022/06/08 07:17:07;;;;;;;4.53;2.90;;;;;;;30.46;33.55;94147.72;5049799;28;20290;-78
2022/06/08 07:19:34;;;;;;;5.53;3.40;;;;;;;28.81;35.43;94155.69;5049766;28;20658;-80
2022/06/08 07:22:00;;;;;;;6.88;3.40;;;;;;;30.22;33.88;94148.34;5050037;28;20199;-81
2022/06/08 07:24:31;;;;;;;6.50;3.10;;;;;;;31.35;31.88;94150.00;5049522;28;20204;-82
2022/06/08 07:27:06;;;;;;;4.63;3.45;;;;;;;30.62;32.63;94147.38;5039610;28;20196;-80
2022/06/08 07:29:33;;;;;;;4.68;3.03;;;;;;;31.15;31.64;94144.19;5047317;28;20248;-83
2022/06/08 07:32:00;;;;;;;5.35;3.15;;;;;;;31.93;31.39;94151.56;5049570;28;20227;-79
2022/06/08 07:34:28;;;;;;;5.95;3.50;;;;;;;31.32;31.33;94150.94;5049556;28;20257;-81
2022/06/08 07:36:55;;;;;;;5.03;3.20;;;;;;;30.54;33.02;94154.56;5048635;28;20709;-80
2022/06/08 07:39:24;;;;;;;3.67;3.03;;;;;;;30.16;34.12;94155.81;5044266;28;20598;-81
2022/06/08 07:41:51;;;;;;;5.88;3.70;;;;;;;29.80;33.65;94161.31;5049210;28;20224;-81
2022/06/08 07:44:20;;;;;;;7.25;3.70;;;;;;;30.68;32.60;94151.13;5042642;28;20197;-80
2022/06/08 07:46:48;;;;;;;4.88;3.40;;;;;;;31.00;32.89;94161.63;5041943;28;20228;-81
2022/06/08 07:52:02;;;;;;;4.28;3.30;;;;;;;29.53;34.09;94165.59;5048580;28;20239;-82
2022/06/08 07:54:30;;;;;;;3.75;3.30;;;;;;;28.08;35.94;94160.69;5039609;28;20278;-78
2022/06/08 07:56:57;;;;;;;4.88;3.45;;;;;;;26.13;39.74;94186.19;5045852;28;20234;-78
2022/06/08 07:59:30;;;;;;;4.38;3.08;;;;;;;27.41;38.41;94180.44;5051550;28;20203;-79
2022/06/08 08:01:58;;;;;;;4.10;3.00;;;;;;;26.96;39.44;94177.09;5050636;28;20254;-82
2022/06/08 08:04:25;;;;;;;6.18;3.50;;;;;;;28.49;37.26;94167.22;5047108;28;20310;-82
2022/06/08 08:06:52;;;;;;;6.45;3.50;;;;;;;29.16;35.08;94155.53;5049806;28;20625;-85
2022/06/08 08:09:20;;;;;;;6.28;3.20;;;;;;;29.66;34.84;94157.09;5037602;28;20216;-85
2022/06/08 08:11:50;;;;;;;6.43;3.50;;;;;;;30.12;33.59;94151.59;5048256;28;20200;-84
2022/06/08 08:14:17;;;;;;;5.55;3.30;;;;;;;30.48;32.78;94148.03;5049768;28;20235;-83
2022/06/08 08:16:46;;;;;;;4.07;3.30;;;;;;;30.44;33.96;94136.22;5049896;28;20207;-84
2022/06/08 08:19:17;;;;;;;5.68;3.22;;;;;;;29.64;33.94;94138.03;5049981;28;20212;-83
2022/06/08 08:21:44;;;;;;;6.63;3.72;;;;;;;29.00;34.94;94135.00;5036821;28;20654;-84
2022/06/08 08:24:11;;;;;;;3.70;3.40;;;;;;;27.32;38.44;94144.19;5049105;28;20219;-83
2022/06/08 08:26:37;;;;;;;4.63;3.20;;;;;;;26.64;39.00;94139.94;5049309;28;20227;-85
2022/06/08 08:29:05;;;;;;;4.90;3.33;;;;;;;27.25;37.41;94127.72;5048864;28;20272;-85
2022/06/08 08:31:32;;;;;;;5.40;3.30;;;;;;;27.13;37.69;94134.06;5049524;28;20269;-84
2022/06/08 08:34:01;;;;;;;4.72;3.20;;;;;;;27.84;37.61;94129.72;5049212;28;20295;-83
2022/06/08 08:36:28;;;;;;;5.03;3.42;;;;;;;27.81;37.35;94129.84;5049271;28;20235;-84
2022/06/08 08:38:55;;;;;;;4.32;3.42;;;;;;;27.04;38.25;94128.41;5049113;28;20295;-81
2022/06/08 08:44:28;;;;;;;8.23;2.65;;;;;;;27.08;36.74;94126.28;5052184;28;20231;-80
2022/06/08 08:47:03;;;;;;;5.25;3.08;;;;;;;26.52;37.49;94126.78;5048606;28;20220;-87
2022/06/08 08:49:32;;;;;;;3.78;2.90;;;;;;;26.72;36.97;94123.81;5049987;28;20317;-85
2022/06/08 08:52:01;;;;;;;7.43;2.75;;;;;;;26.45;37.16;94122.22;5052654;28;20234;-79
2022/06/08 08:54:31;;;;;;;4.03;3.10;;;;;;;27.67;36.95;94119.19;5052728;28;20224;-85
2022/06/08 08:57:16;;;;;;;4.28;2.90;;;;;;;27.53;35.72;94121.22;5052700;28;20601;-84
2022/06/08 08:59:46;;;;;;;3.50;3.08;;;;;;;28.00;35.77;94109.28;5052731;28;20508;-84
2022/06/08 09:02:15;;;;;;;3.67;3.10;;;;;;;28.74;34.57;94111.31;5052731;28;20273;-84
2022/06/08 09:04:47;;;;;;;5.53;2.92;;;;;;;29.04;33.87;94100.63;5052572;28;20306;-86
2022/06/08 09:07:16;;;;;;;5.97;2.33;;;;;;;28.42;35.77;94111.78;5052985;28;20239;-86
2022/06/08 09:09:44;;;;;;;2.97;2.67;;;;;;;27.41;35.88;94105.31;5052108;28;20211;-80
2022/06/08 09:12:14;;;;;;;4.78;2.90;;;;;;;27.04;35.97;94106.94;5052628;28;20237;-84
2022/06/08 09:14:50;;;;;;;4.75;2.40;;;;;;;26.83;36.25;94108.34;5052352;28;20346;-82
2022/06/08 09:17:20;;;;;;;4.28;2.80;;;;;;;27.61;35.34;94101.53;5052639;28;20661;-85
2022/06/08 09:19:51;;;;;;;5.88;2.67;;;;;;;27.94;34.37;94089.59;5052539;28;20204;-84
2022/06/08 09:22:24;;;;;;;4.03;2.58;;;;;;;27.70;36.04;94096.03;5052092;28;20639;-85
2022/06/08 09:24:53;;;;;;;2.83;2.28;;;;;;;27.57;36.04;94091.28;5050552;28;20230;-85
2022/06/08 09:27:25;;;;;;;4.65;2.70;;;;;;;27.37;35.39;94096.31;5052153;28;20875;-85
2022/06/08 09:29:57;;;;;;;3.00;2.47;;;;;;;26.97;36.83;94095.25;5051987;28;20231;-86
2022/06/08 09:32:32;;;;;;;3.55;2.28;;;;;;;26.76;37.22;94103.03;5049951;28;20203;-84
2022/06/08 09:35:04;;;;;;;2.75;2.42;;;;;;;26.59;37.43;94090.44;5041937;28;20588;-84
2022/06/08 09:37:31;;;;;;;5.28;2.33;;;;;;;26.46;37.80;94089.66;5052084;28;20227;-83
2022/06/08 09:40:01;;;;;;;8.75;7.45;;;;;;;26.90;36.90;94083.13;5051927;28;20207;-85
2022/06/08 09:42:46;;;;;;;3.10;2.60;;;;;;;26.73;37.21;94090.00;5051715;28;20223;-83
2022/06/08 09:45:40;;;;;;;2.70;2.15;;;;;;;26.02;38.11;94085.75;5067212;28;20272;-79
2022/06/08 09:51:35;;;;;;;3.58;2.42;;;;;;;26.71;36.31;94075.00;5045029;28;20713;-84
2022/06/08 09:54:15;;;;;;;2.60;2.10;;;;;;;26.60;37.37;94077.34;5038535;28;20562;-81
2022/06/08 09:57:20;;;;;;;3.05;1.95;;;;;;;26.25;37.33;94079.13;5050857;28;20215;-84
2022/06/08 10:00:01;;;;;;;3.20;2.20;;;;;;;25.81;36.90;94081.59;5042886;28;20588;-83
2022/06/08 10:02:40;;;;;;;2.22;2.03;;;;;;;26.50;36.17;94057.78;5043250;28;20261;-85
2022/06/08 10:05:22;;;;;;;1.60;1.50;;;;;;;26.13;37.02;94050.91;5036745;28;20227;-81
2022/06/08 10:07:58;;;;;;;3.45;1.88;;;;;;;25.60;37.58;94062.72;5051698;28;20242;-83
2022/06/08 10:10:32;;;;;;;2.78;1.85;;;;;;;26.26;38.21;94052.94;5042360;28;20214;-82
2022/06/08 10:13:01;;;;;;;4.10;2.22;;;;;;;26.85;36.90;94049.53;5050723;28;20357;-84
2022/06/08 10:15:35;;;;;;;2.50;1.90;;;;;;;26.64;36.40;94045.44;5051334;28;20211;-77
2022/06/08 10:18:13;;;;;;;2.95;1.80;;;;;;;26.39;37.58;94051.75;5048580;28;20195;-82
2022/06/08 10:20:45;;;;;;;4.95;2.10;;;;;;;26.53;36.91;94056.09;5050876;28;20199;-85
2022/06/08 10:23:27;;;;;;;2.08;1.88;;;;;;;26.27;35.86;94054.50;5040744;28;20216;-84
2022/06/08 10:26:00;;;;;;;4.75;2.10;;;;;;;26.26;36.23;94047.38;5050768;28;20869;-80
2022/06/08 10:28:36;;;;;;;2.15;1.77;;;;;;;26.78;35.58;94045.00;5051028;28;20196;-74
2022/06/08 10:31:07;;;;;;;2.55;1.90;;;;;;;26.46;36.38;94046.00;5048384;28;20601;-80
2022/06/08 10:33:40;;;;;;;2.17;1.83;;;;;;;26.68;36.12;94034.97;5050845;28;20219;-84
2022/06/08 10:36:10;;;;;;;3.67;1.80;;;;;;;26.74;37.89;94033.22;5050576;28;20227;-86
2022/06/08 10:38:43;;;;;;;5.80;2.17;;;;;;;26.92;36.06;94031.88;5050357;28;20635;-80
2022/06/08 10:44:33;;;;;;;3.67;1.88;;;;;;;26.78;36.70;94028.31;5047189;28;20198;-81
2022/06/08 10:47:27;;;;;;;2.13;1.92;;;;;;;27.52;35.63;94027.81;5050497;28;20242;-85
2022/06/08 10:49:56;;;;;;;1.73;1.60;;;;;;;27.67;35.05;94024.56;5050271;28;20424;-82
2022/06/08 10:52:30;;;;;;;2.63;1.90;;;;;;;27.61;34.19;94027.13;5043257;28;20215;-84
2022/06/08 10:55:37;;;;;;;2.25;1.85;;;;;;;26.77;35.86;94031.53;5045302;28;20231;-83
2022/06/08 10:58:10;;;;;;;3.70;2.10;;;;;;;27.13;35.89;94025.59;5042916;28;20212;-85
2022/06/08 11:01:11;;;;;;;4.28;1.95;;;;;;;27.25;35.76;94035.91;5046748;28;20663;-80
2022/06/08 11:04:07;;;;;;;2.38;1.90;;;;;;;26.52;36.21;94024.75;5043181;28;20219;-78
2022/06/08 11:07:05;;;;;;;3.78;2.10;;;;;;;26.56;36.27;94027.44;5008830;28;20726;-85
2022/06/08 11:09:56;;;;;;;2.30;2.10;;;;;;;26.77;38.02;94031.53;5044938;28;20626;-87
2022/06/08 11:12:53;;;;;;;3.75;1.90;;;;;;;27.61;36.51;94021.56;5050795;28;20195;-84
2022/06/08 11:15:37;;;;;;;3.03;2.30;;;;;;;27.90;34.54;94015.75;5039238;28;20899;-83
2022/06/08 11:18:13;;;;;;;3.17;2.40;;;;;;;27.01;35.48;94009.72;5051455;28;20231;-80
2022/06/08 11:20:47;;;;;;;3.05;2.35;;;;;;;27.36;35.45;94008.50;5051189;28;20216;-84
2022/06/08 11:23:19;;;;;;;2.20;2.00;;;;;;;27.86;34.89;94004.75;5037646;28;20311;-84
2022/06/08 11:25:49;;;;;;;2.22;1.88;;;;;;;27.45;35.90;94002.25;5051202;28;20303;-81
2022/06/08 11:28:32;;;;;;;4.35;1.85;;;;;;;27.23;36.08;93991.09;5051171;28;20204;-82
2022/06/08 11:31:02;;;;;;;1.90;1.80;;;;;;;27.23;36.70;93991.09;5050977;28;20230;-81
2022/06/08 11:33:56;;;;;;;2.42;1.75;;;;;;;27.69;36.33;93983.91;5051890;28;20220;-83
2022/06/08 11:36:48;;;;;;;3.38;2.00;;;;;;;28.25;36.06;93978.25;5039603;28;20639;-84
2022/06/08 11:39:24;;;;;;;3.35;1.90;;;;;;;27.54;35.82;93983.63;5050722;28;20628;-82
2022/06/08 11:42:01;;;;;;;2.03;1.92;;;;;;;27.43;37.09;93979.69;5050754;28;20362;-83
2022/06/08 11:44:33;;;;;;;4.05;2.60;;;;;;;26.97;38.35;93975.69;5044456;28;20265;-80
2022/06/08 11:47:15;;;;;;;2.28;2.03;;;;;;;26.69;37.18;93980.97;5049841;28;20239;-80
2022/06/08 11:49:45;;;;;;;3.03;2.13;;;;;;;26.88;36.84;93971.59;5050625;28;20231;-83
2022/06/08 11:52:36;;;;;;;2.88;2.42;;;;;;;27.20;36.25;93976.06;5050903;28;20384;-84
2022/06/08 11:55:17;;;;;;;2.90;2.60;;;;;;;27.83;35.01;93965.91;5047716;28;20280;-84
2022/06/08 11:57:48;;;;;;;5.72;2.90;;;;;;;28.51;35.15;93958.53;5050605;28;20206;-81
2022/06/08 12:00:21;;;;;;;5.68;2.45;;;;;;;28.67;33.87;93946.34;5050279;28;20215;-83
2022/06/08 12:02:53;;;;;;;3.65;2.30;;;;;;;28.43;34.37;93948.91;5050514;28;20196;-83
2022/06/08 12:05:23;;;;;;;3.95;2.50;;;;;;;28.94;35.31;93947.19;5051190;28;20262;-84
2022/06/08 12:07:58;;;;;;;3.00;2.30;;;;;;;29.00;34.43;93939.75;5051045;28;20215;-81
2022/06/08 12:10:28;;;;;;;3.08;2.38;;;;;;;29.40;34.86;93950.03;5030642;28;20310;-84